• Join FlightAware (Why Join?)
  • Login
  • US Flag 
02:00PM EST


 

Airport Tracker/Info


-or-


 

Live Flight TrackerFlight Track Log ✈ RPA9282 ✈ 29-Mar-2014 ✈ KCLT - KPHL

Flight Track Log - Related Links

Times and Time Zones

All times are in EDT time to prevent confusion due to time zone crossing. See the RPA9282 flight status page for this flight to view local times or setup timezone preferences in your user account.

Time Position Orientation Groundspeed Altitude Reporting Facility
EDT Latitude Longitude Course Direction KTS MPH feet Rate Location/Type
08:04PM 35.1992 -80.9353 156° South 135 155 1,900  Level Atlanta Center
08:04PM 35.1950 -80.9331 156° South 133 153 2,400 1,890 Climbing Atlanta Center
08:05PM 35.1425 -80.9247 173° South 221 254 4,200 2,557 Climbing Atlanta Center
08:06PM 35.0906 -80.8481 130° Southeast 302 348 7,600 3,295 Climbing Atlanta Center
08:07PM 35.1150 -80.7531 73° East 327 376 10,900 2,769 Climbing Atlanta Center
08:07PM 35.1311 -80.7272 53° Northeast 329 379 11,200 2,000 Climbing Atlanta Center
08:08PM 35.1847 -80.6233 58° Northeast 371 427 13,500 2,217 Climbing Atlanta Center
08:10PM 35.2814 -80.4417 57° Northeast 382 440 17,000 2,025 Climbing Washington Center
08:11PM 35.3450 -80.3181 58° Northeast 403 464 18,800 1,623 Climbing Washington Center
08:12PM 35.4125 -80.1897 57° Northeast 424 488 20,300 1,289 Climbing Washington Center
08:13PM 35.4544 -80.0722 66° East 438 504 21,400 1,424 Climbing Washington Center
08:14PM 35.4942 -79.9008 74° East 458 527 23,100 1,525 Climbing Washington Center
08:15PM 35.5353 -79.7450 72° East 468 539 24,400 1,240 Climbing Washington Center
08:16PM 35.5850 -79.5661 71° East 488 562 25,600 1,289 Climbing Washington Center
08:17PM 35.6744 -79.4531 46° Northeast 498 573 27,000 1,041 Climbing Washington Center
08:18PM 35.7903 -79.3536 35° Northeast 498 573 27,700 1,190 Climbing Washington Center
08:19PM 35.9103 -79.2492 35° Northeast 505 581 29,400 1,678 Climbing Washington Center
08:20PM 36.0303 -79.1492 34° Northeast 517 595 31,000 814 Climbing Washington Center
08:21PM 36.1500 -79.0442 35° Northeast 527 606 31,000  Level Washington Center
08:22PM 36.2761 -78.9389 34° Northeast 527 606 31,000  Level Washington Center
08:23PM 36.4025 -78.8281 35° Northeast 537 618 31,000  Level Washington Center
08:24PM 36.5306 -78.7172 35° Northeast 548 631 31,000  Level Washington Center
08:25PM 36.6606 -78.6033 35° Northeast 562 647 31,000  Level Washington Center
08:26PM 36.8014 -78.4764 36° Northeast 570 656 31,000  Level Washington Center
08:27PM 36.9314 -78.3617 35° Northeast 570 656 31,000  Level Washington Center
08:28PM 37.0614 -78.2467 35° Northeast 575 662 31,000  Level Washington Center
08:29PM 37.1889 -78.1339 35° Northeast 569 655 31,000  Level Washington Center
08:30PM 37.3186 -78.0181 35° Northeast 569 655 31,000  Level Washington Center
08:31PM 37.4481 -77.9017 36° Northeast 569 655 31,000  Level Washington Center
08:32PM 37.5775 -77.7850 36° Northeast 569 655 31,000  Level Washington Center
08:33PM 37.7047 -77.6681 36° Northeast 574 661 31,000  Level Washington Center
08:34PM 37.8339 -77.5506 36° Northeast 574 661 31,000  Level Washington Center
08:35PM 37.9631 -77.4356 35° Northeast 574 661 31,000  Level Washington Center
08:36PM 38.0878 -77.3225 35° Northeast 574 661 31,000  Level Washington Center
08:37PM 38.2125 -77.2064 36° Northeast 569 655 31,000  Level Washington Center
08:38PM 38.3369 -77.0925 36° Northeast 559 643 31,000 -600 Level Washington Center
08:39PM 38.4592 -76.9783 36° Northeast 549 632 29,800 -1,916 Descending Washington Center
08:40PM 38.5708 -76.8717 37° Northeast 525 604 27,200 -2,550 Descending Washington Center
08:41PM 38.6719 -76.7750 37° Northeast 487 560 24,700 -1,587 Descending Washington Center
08:42PM 38.7275 -76.6347 63° Northeast 436 502 24,000 -1,361 Descending Washington Center
08:43PM 38.7600 -76.4861 74° East 421 484 22,000 -2,100 Descending Washington Center
08:44PM 38.7881 -76.3453 76° East 421 484 19,800 -2,281 Descending Washington Center
08:45PM 38.8158 -76.2044 76° East 405 466 17,400 -2,132 Descending Washington Center
08:46PM 38.8436 -76.0742 75° East 393 452 15,500 -1,916 Descending Washington Center
08:47PM 38.8711 -75.9489 74° East 382 440 13,600 -1,900 Descending Washington Center
08:48PM 38.8692 -75.8394 91° East 349 402 11,700 -1,364 Descending Washington Center
08:50PM 38.9833 -75.7333 36° Northeast 329 379 10,100 -671 Descending Philadelphia TRACON
08:51PM 39.0833 -75.7167 North 329 379 10,000  Descending Philadelphia TRACON
08:52PM 39.1667 -75.6833 17° North 333 383 10,100 50 Climbing Philadelphia TRACON
08:53PM 39.2500 -75.6667 North 331 381 10,100 -100 Level Philadelphia TRACON
08:54PM 39.3500 -75.6333 14° North 333 383 9,900 -850 Descending Philadelphia TRACON
08:55PM 39.4333 -75.6167 North 316 364 8,400 -1,800 Descending Philadelphia TRACON
08:56PM 39.5167 -75.6000 North 317 365 6,300 -1,200 Descending Philadelphia TRACON
08:57PM 39.6000 -75.5667 17° North 260 299 6,000 -1,100 Descending Philadelphia TRACON
08:58PM 39.6667 -75.5500 11° North 272 313 4,100 -1,500 Descending Philadelphia TRACON
08:59PM 39.7500 -75.5333 North 251 289 3,000 -524 Descending Philadelphia TRACON
09:00PM 39.8000 -75.5000 27° Northeast 231 266 3,000 -190 Level Philadelphia TRACON
09:01PM 39.8333 -75.4333 57° Northeast 176 203 2,600 -684 Descending Philadelphia TRACON
09:02PM 39.8333 -75.3833 90° East 176 203 1,700 -789 Descending Philadelphia TRACON
09:03PM 39.8500 -75.3333 67° East 99 114 1,100 -550 Descending Philadelphia TRACON
09:04PM 39.8500 -75.3000 90° East 99 114 600 -500 Descending Philadelphia TRACON